createdAt,value
2018-10-06T03:03:52.710Z,7.28
2018-10-06T03:04:47.621Z,7.42
2018-10-06T03:05:48.044Z,7.39
2018-10-06T03:06:48.261Z,7.50
2018-10-06T03:07:49.079Z,7.50
2018-10-06T03:08:51.334Z,7.51
2018-10-06T03:09:50.560Z,7.48
2018-10-06T03:10:48.922Z,7.48
2018-10-06T03:11:51.471Z,7.42
2018-10-06T03:12:53.516Z,7.36
2018-10-06T03:13:49.003Z,7.31
2018-10-06T03:14:48.702Z,7.17
2018-10-06T03:15:49.106Z,7.10
2018-10-06T03:16:47.953Z,7.14
2018-10-06T03:17:48.220Z,7.14
2018-10-06T03:18:48.076Z,7.02
2018-10-06T03:19:47.906Z,7.00
2018-10-06T03:20:47.892Z,7.03
2018-10-06T03:21:49.392Z,7.02
2018-10-06T03:22:48.681Z,7.02
2018-10-06T03:23:49.583Z,6.95
2018-10-06T03:24:48.668Z,7.02
2018-10-06T03:25:49.178Z,6.99
2018-10-06T03:26:49.425Z,7.03
2018-10-06T03:27:49.785Z,6.97
2018-10-06T03:28:49.052Z,7.03
2018-10-06T03:30:49.825Z,7.10
2018-10-06T03:31:50.635Z,7.13
2018-10-06T03:32:50.948Z,7.13
2018-10-06T03:33:51.482Z,7.10
2018-10-06T03:34:50.383Z,7.02
2018-10-06T03:35:50.556Z,7.17
2018-10-06T03:36:51.033Z,7.02
2018-10-06T03:37:51.057Z,7.10
2018-10-06T03:38:51.652Z,7.11
2018-10-06T03:39:52.046Z,7.02
2018-10-06T03:40:51.256Z,7.05
2018-10-06T03:41:51.884Z,6.99
2018-10-06T03:42:51.984Z,6.97
2018-10-06T03:43:52.216Z,6.99
2018-10-06T03:44:53.026Z,6.96
2018-10-06T03:45:53.531Z,6.96
2018-10-06T03:46:52.323Z,6.97
2018-10-06T03:47:52.851Z,6.88
2018-10-06T03:48:52.607Z,6.87
2018-10-06T03:49:53.183Z,6.88
2018-10-06T03:50:53.495Z,6.89
2018-10-06T03:51:53.719Z,6.82
2018-10-06T03:52:53.455Z,6.84
2018-10-06T03:54:54.823Z,6.81
2018-10-06T03:55:54.431Z,6.82
2018-10-06T03:56:55.086Z,6.81
2018-10-06T03:57:54.533Z,6.84
2018-10-06T03:59:56.231Z,6.77
2018-10-06T04:01:03.465Z,6.81
2018-10-06T04:01:56.201Z,6.87
2018-10-06T04:02:56.237Z,6.85
2018-10-06T04:03:55.549Z,6.79
2018-10-06T04:04:55.681Z,6.82
2018-10-06T04:05:57.999Z,6.82
2018-10-06T04:06:57.040Z,6.84
2018-10-06T04:07:56.694Z,6.75
2018-10-06T04:08:58.262Z,6.92
2018-10-06T04:09:57.701Z,6.95
2018-10-06T04:10:57.191Z,7.02
2018-10-06T04:11:57.085Z,7.10
2018-10-06T04:12:59.254Z,7.05
2018-10-06T04:13:58.145Z,7.10
2018-10-06T04:14:58.652Z,7.18
2018-10-06T04:15:59.140Z,7.02
2018-10-06T04:16:59.015Z,7.02
2018-10-06T04:19:46.321Z,6.84
2018-10-06T04:20:47.125Z,6.81
2018-10-06T04:21:49.666Z,6.78
2018-10-06T04:22:45.943Z,6.74
2018-10-06T04:23:49.654Z,6.56
2018-10-06T04:24:54.915Z,6.67
2018-10-06T04:25:50.639Z,6.41
2018-10-06T04:26:57.249Z,6.60
2018-10-06T04:27:49.117Z,6.60
2018-10-06T04:28:56.831Z,6.62
2018-10-06T04:29:49.714Z,6.59
2018-10-06T04:31:03.189Z,6.57
2018-10-06T04:31:51.186Z,6.56
2018-10-06T04:32:48.339Z,6.56
2018-10-06T04:33:47.315Z,6.60
2018-10-06T04:34:46.678Z,6.69
2018-10-06T04:35:46.232Z,6.60
2018-10-06T04:36:48.265Z,6.69
2018-10-06T04:37:47.154Z,6.62
2018-10-06T04:38:46.499Z,6.63
2018-10-06T04:39:49.481Z,6.70
2018-10-06T04:40:46.461Z,6.69
2018-10-06T04:41:47.031Z,6.64
2018-10-06T04:42:49.009Z,6.64
2018-10-06T04:43:47.538Z,6.62
2018-10-06T04:44:50.300Z,6.56
2018-10-06T04:45:47.664Z,6.57
2018-10-06T04:46:50.427Z,6.56
2018-10-06T04:47:48.329Z,6.56
2018-10-06T04:48:50.704Z,6.52
2018-10-06T04:49:49.324Z,6.59
2018-10-06T04:50:51.044Z,6.59
2018-10-06T04:51:50.217Z,6.62
2018-10-06T04:52:49.557Z,6.62
2018-10-06T04:53:51.215Z,6.57
2018-10-06T04:54:50.624Z,6.45
2018-10-06T04:55:54.880Z,6.56
2018-10-06T04:56:56.989Z,6.48
2018-10-06T04:57:49.957Z,6.48
2018-10-06T04:58:51.926Z,6.44
2018-10-06T04:59:51.170Z,6.35
2018-10-06T05:00:51.553Z,6.35
2018-10-06T05:01:51.884Z,6.49
2018-10-06T05:02:51.276Z,6.39
2018-10-06T05:03:51.626Z,6.49
2018-10-06T05:04:53.285Z,6.49
2018-10-06T05:05:52.039Z,6.59
2018-10-06T05:07:02.367Z,6.67
2018-10-06T05:07:52.345Z,6.60
2018-10-06T05:08:52.363Z,6.66
2018-10-06T05:09:55.324Z,6.64
2018-10-06T05:10:52.901Z,6.64
2018-10-06T05:11:53.084Z,6.59
2018-10-06T05:12:53.090Z,6.60
2018-10-06T05:13:54.319Z,6.57
2018-10-06T05:14:53.706Z,6.54
2018-10-06T05:15:53.576Z,6.59
2018-10-06T05:16:55.589Z,6.57
2018-10-06T05:17:55.987Z,6.51
2018-10-06T05:18:54.278Z,6.45
2018-10-06T05:19:54.360Z,6.52
2018-10-06T05:20:54.419Z,6.59
2018-10-06T05:21:54.623Z,6.48
2018-10-06T05:22:55.047Z,6.56
2018-10-06T05:23:54.318Z,6.52
2018-10-06T05:24:54.406Z,6.54
2018-10-06T05:25:54.843Z,6.48
2018-10-06T05:26:56.074Z,6.54
2018-10-06T05:27:55.043Z,6.51
2018-10-06T05:28:55.053Z,6.51
2018-10-06T05:29:54.890Z,6.56
2018-10-06T05:30:55.554Z,6.51
2018-10-06T05:31:55.870Z,6.60
2018-10-06T05:32:55.315Z,6.62
2018-10-06T05:34:00.251Z,6.57
2018-10-06T05:35:56.167Z,6.69
2018-10-06T05:36:57.411Z,6.66
2018-10-06T05:37:57.311Z,6.70
2018-10-06T05:38:57.175Z,6.62
2018-10-06T05:39:58.689Z,6.74
2018-10-06T05:40:56.766Z,6.74
2018-10-06T05:41:58.803Z,6.74
2018-10-06T05:42:57.623Z,6.70
2018-10-06T05:43:58.005Z,6.74
2018-10-06T05:44:57.648Z,6.79
2018-10-06T05:45:59.078Z,6.77
2018-10-06T05:46:58.124Z,6.82
2018-10-06T05:47:57.742Z,6.82
2018-10-06T05:48:58.089Z,6.93
2018-10-06T05:49:58.520Z,6.97
2018-10-06T05:50:58.353Z,7.06
2018-10-06T05:51:59.264Z,7.11
2018-10-06T05:52:58.755Z,7.07
2018-10-06T05:53:58.940Z,7.17
2018-10-06T05:54:59.267Z,7.06
2018-10-06T05:55:59.245Z,6.99
2018-10-06T05:57:00.685Z,6.95
2018-10-06T05:58:00.875Z,6.87
2018-10-06T05:59:00.124Z,6.79
2018-10-06T05:59:59.830Z,6.81
2018-10-06T06:01:00.070Z,6.84
2018-10-06T06:01:59.897Z,6.85
2018-10-06T06:03:02.583Z,6.84
2018-10-06T06:04:01.236Z,6.81
2018-10-06T06:05:01.183Z,6.84
2018-10-06T06:06:00.733Z,6.89
2018-10-06T06:07:00.946Z,6.97
2018-10-06T06:08:01.258Z,7.03
2018-10-06T06:09:01.686Z,7.07
2018-10-06T06:10:01.849Z,7.11
2018-10-06T06:11:01.984Z,7.13
2018-10-06T06:12:01.729Z,7.15
2018-10-06T06:13:02.188Z,7.14
2018-10-06T06:14:01.963Z,7.15
2018-10-06T06:15:02.374Z,7.07
2018-10-06T06:16:02.511Z,7.10
2018-10-06T06:17:02.696Z,7.05
2018-10-06T06:18:03.103Z,7.07
2018-10-06T06:19:02.925Z,7.06
2018-10-06T06:20:03.255Z,7.02
2018-10-06T06:21:03.220Z,7.17
2018-10-06T06:22:03.723Z,7.15
2018-10-06T06:23:04.096Z,7.06
2018-10-06T06:24:05.388Z,7.21
2018-10-06T06:25:04.065Z,7.23
2018-10-06T06:26:04.466Z,7.24
2018-10-06T06:27:04.812Z,7.23
2018-10-06T06:28:04.583Z,7.29
2018-10-06T06:29:05.576Z,7.25
2018-10-06T06:30:05.126Z,7.25
2018-10-06T06:31:05.414Z,7.33
2018-10-06T06:32:06.281Z,7.39
2018-10-06T06:33:05.645Z,7.45
2018-10-06T06:34:06.043Z,7.48
2018-10-06T06:35:05.974Z,7.51
2018-10-06T06:36:06.106Z,7.57
2018-10-06T06:37:06.153Z,7.61
2018-10-06T06:38:06.688Z,7.66
2018-10-06T06:39:07.190Z,7.79
2018-10-06T06:40:07.899Z,7.87
2018-10-06T06:41:07.016Z,7.85
2018-10-06T06:43:08.585Z,7.97
2018-10-06T06:44:08.260Z,8.01
2018-10-06T06:45:07.858Z,8.10
2018-10-06T06:46:08.125Z,8.18
2018-10-06T06:47:08.510Z,8.18
2018-10-06T06:48:08.124Z,8.26
2018-10-06T06:49:09.889Z,8.41
2018-10-06T06:50:08.240Z,8.56
2018-10-06T06:51:08.952Z,8.61
2018-10-06T06:52:08.851Z,8.78
2018-10-06T06:53:09.413Z,8.89
2018-10-06T06:54:10.127Z,8.89
2018-10-06T06:55:09.194Z,9.02
2018-10-06T06:56:09.391Z,9.19
2018-10-06T06:57:10.217Z,9.26
2018-10-06T06:58:10.141Z,9.41
2018-10-06T06:59:10.363Z,9.58
2018-10-06T07:00:10.427Z,9.65
2018-10-06T07:01:10.392Z,9.72
2018-10-06T07:02:10.727Z,9.92
2018-10-06T07:03:11.048Z,9.94
2018-10-06T07:04:11.743Z,9.97
2018-10-06T07:05:12.071Z,9.95
2018-10-06T07:06:11.782Z,9.95
2018-10-06T07:07:11.943Z,9.94
2018-10-06T07:08:11.501Z,10.12
2018-10-06T07:09:14.292Z,10.28
2018-10-06T07:10:11.875Z,10.54
2018-10-06T07:12:15.852Z,10.89
2018-10-06T07:13:20.616Z,10.93
2018-10-06T07:16:31.384Z,11.55
2018-10-06T07:17:40.329Z,11.59
2018-10-06T07:19:35.064Z,12.06
2018-10-06T07:20:35.477Z,12.28
2018-10-06T07:22:28.947Z,12.58
2018-10-06T07:24:45.221Z,12.94
2018-10-06T07:26:32.104Z,13.44
2018-10-06T07:27:42.433Z,13.74
2018-10-06T07:28:35.859Z,13.89
2018-10-06T07:29:27.722Z,14.33
2018-10-06T07:30:30.819Z,14.59
2018-10-06T07:31:28.326Z,14.92
2018-10-06T07:37:58.627Z,16.39
2018-10-06T07:38:31.108Z,16.58
2018-10-06T07:40:27.455Z,16.84
2018-10-06T07:41:27.812Z,17.12
2018-10-06T07:42:27.324Z,17.16
2018-10-06T07:43:26.943Z,17.38
2018-10-06T07:44:27.964Z,17.63
2018-10-06T07:45:30.524Z,17.33
2018-10-06T07:46:28.956Z,17.59
2018-10-06T07:47:28.472Z,17.74
2018-10-06T07:48:27.494Z,17.76
2018-10-06T07:49:27.933Z,17.90
2018-10-06T07:50:28.639Z,17.90
2018-10-06T07:51:28.070Z,18.01
2018-10-06T07:52:29.657Z,17.98
2018-10-06T07:53:28.720Z,17.89
2018-10-06T07:54:28.761Z,17.90
2018-10-06T07:55:28.782Z,17.83
2018-10-06T07:56:28.936Z,17.92
2018-10-06T07:57:29.527Z,17.97
2018-10-06T07:58:29.472Z,17.90
2018-10-06T07:59:30.207Z,17.80
2018-10-06T08:00:30.011Z,17.80
2018-10-06T08:01:29.814Z,17.85
2018-10-06T08:02:29.793Z,17.72
2018-10-06T08:03:30.431Z,17.64
2018-10-06T08:04:30.416Z,17.76
2018-10-06T08:05:30.965Z,17.85
2018-10-06T08:06:30.494Z,17.97
2018-10-06T08:07:33.050Z,17.92
2018-10-06T08:08:31.482Z,18.05
2018-10-06T08:09:31.005Z,17.95
2018-10-06T08:10:31.085Z,17.97
2018-10-06T08:11:31.315Z,18.44
2018-10-06T08:12:31.436Z,18.75
2018-10-06T08:13:31.922Z,19.11
2018-10-06T08:14:32.272Z,19.59
2018-10-06T08:15:32.151Z,19.82
2018-10-06T08:16:31.998Z,19.88
2018-10-06T08:17:32.371Z,19.47
2018-10-06T08:18:33.003Z,19.55
2018-10-06T08:19:32.923Z,19.52
2018-10-06T08:20:33.050Z,19.59
2018-10-06T08:21:33.518Z,19.94
2018-10-06T08:22:33.551Z,19.89
2018-10-06T08:23:34.470Z,20.02
2018-10-06T08:24:33.927Z,20.26
2018-10-06T08:25:33.842Z,20.39
2018-10-06T08:26:35.097Z,20.37
2018-10-06T08:27:34.433Z,20.65
2018-10-06T08:28:35.007Z,20.67
2018-10-06T08:29:34.884Z,20.96
2018-10-06T08:30:35.720Z,21.14
2018-10-06T08:31:37.215Z,21.39
2018-10-06T08:32:35.040Z,21.66
2018-10-06T08:33:36.140Z,22.06
2018-10-06T08:35:38.197Z,22.35
2018-10-06T08:36:36.347Z,22.44
2018-10-06T08:37:36.127Z,22.88
2018-10-06T08:38:37.191Z,23.00
2018-10-06T08:39:36.493Z,23.23
2018-10-06T08:40:37.602Z,23.41
2018-10-06T08:41:36.942Z,23.50
2018-10-06T08:42:36.708Z,23.48
2018-10-06T08:43:37.107Z,23.24
2018-10-06T08:44:37.610Z,23.20
2018-10-06T08:45:37.524Z,23.47
2018-10-06T08:46:38.270Z,23.66
2018-10-06T08:47:38.785Z,23.83
2018-10-06T08:49:39.390Z,23.77
2018-10-06T08:50:39.810Z,24.13
2018-10-06T08:51:47.426Z,24.08
2018-10-06T08:52:40.147Z,24.36
2018-10-06T08:53:39.127Z,24.53
2018-10-06T08:54:39.035Z,24.38
2018-10-06T08:55:39.391Z,24.48
2018-10-06T08:56:39.785Z,24.36
2018-10-06T08:57:39.809Z,24.53
2018-10-06T08:58:40.732Z,24.80
2018-10-06T08:59:44.916Z,24.95
2018-10-06T09:00:40.588Z,24.98
2018-10-06T09:01:42.887Z,25.03
2018-10-06T09:02:51.432Z,25.29
2018-10-06T09:03:41.981Z,25.01
2018-10-06T09:04:46.697Z,25.03
2018-10-06T09:05:56.242Z,25.16
2018-10-06T09:06:45.268Z,25.33
2018-10-06T09:07:43.055Z,25.66
2018-10-06T09:08:42.974Z,25.84
2018-10-06T09:10:42.624Z,25.84
2018-10-06T09:11:47.570Z,26.07
2018-10-06T09:12:42.252Z,26.13
2018-10-06T09:13:43.142Z,26.28
2018-10-06T09:14:55.026Z,25.93
2018-10-06T10:28:18.716Z,30.63
2018-10-06T10:28:57.108Z,30.65
2018-10-06T10:30:25.161Z,30.85
2018-10-06T11:05:31.821Z,33.08
2018-10-06T11:11:23.232Z,32.40
2018-10-06T11:12:12.919Z,32.16
2018-10-06T11:28:21.436Z,31.14
2018-10-06T11:29:10.592Z,31.22
2018-10-06T11:29:57.509Z,31.21
2018-10-06T11:38:12.106Z,31.34
2018-10-06T12:12:16.341Z,36.37
2018-10-06T12:13:55.367Z,36.25
2018-10-06T12:26:43.340Z,36.57
2018-10-06T12:36:39.819Z,36.35
2018-10-06T14:45:41.751Z,26.16
2018-10-06T14:46:12.000Z,26.19
2018-10-06T14:47:04.747Z,26.23
2018-10-06T14:48:05.856Z,26.26
2018-10-06T14:49:11.156Z,26.36
2018-10-06T14:50:24.600Z,26.29
2018-10-06T14:51:14.713Z,26.07
2018-10-06T14:52:47.365Z,26.00
2018-10-06T14:53:10.246Z,25.96
2018-10-06T14:55:12.739Z,25.80
2018-10-06T14:56:06.550Z,25.87
2018-10-06T14:58:06.721Z,25.84
2018-10-06T14:59:48.087Z,25.88
2018-10-06T15:05:55.890Z,25.43
2018-10-06T15:41:09.986Z,24.18
2018-10-06T15:42:21.963Z,24.02
2018-10-06T15:43:23.389Z,23.99
2018-10-06T15:44:12.109Z,23.92
2018-10-06T15:45:12.016Z,23.84
2018-10-06T15:46:14.554Z,23.81
2018-10-06T15:47:14.782Z,23.76
2018-10-06T15:49:13.710Z,23.73
2018-10-06T15:50:11.762Z,23.58
2018-10-06T15:51:10.968Z,23.51
2018-10-06T15:52:10.400Z,23.61
2018-10-06T15:53:09.782Z,23.50
2018-10-06T15:54:10.057Z,23.62
2018-10-06T15:55:10.347Z,23.50
2018-10-06T15:56:10.378Z,23.56
2018-10-06T15:57:10.533Z,23.56
2018-10-06T15:58:10.687Z,23.59
2018-10-06T15:59:11.118Z,23.47
2018-10-06T16:00:11.554Z,23.37
2018-10-06T16:01:11.394Z,23.37
2018-10-06T16:02:11.703Z,23.37
2018-10-06T16:03:11.788Z,23.39
2018-10-06T16:04:11.953Z,23.21
2018-10-06T16:05:12.111Z,23.13
2018-10-06T16:06:12.610Z,23.17
2018-10-06T16:07:17.874Z,23.12
2018-10-06T16:08:12.665Z,23.09
2018-10-06T16:09:13.427Z,23.18
2018-10-06T16:10:12.889Z,23.17
2018-10-06T16:11:13.400Z,23.18
2018-10-06T16:12:14.193Z,23.25
2018-10-06T16:13:13.739Z,23.18
2018-10-06T16:14:13.686Z,23.20
2018-10-06T16:15:13.980Z,23.08
2018-10-06T16:16:14.346Z,23.17
2018-10-06T16:17:14.396Z,23.08
2018-10-06T16:18:14.633Z,23.05
2018-10-06T16:19:16.196Z,23.08
2018-10-06T16:20:40.127Z,23.05
2018-10-06T17:53:20.786Z,19.08
2018-10-06T17:54:17.278Z,19.07
2018-10-06T17:57:17.125Z,19.09
2018-10-06T17:58:13.943Z,18.99
2018-10-06T17:59:20.139Z,19.04
2018-10-06T18:00:13.245Z,19.12
2018-10-06T18:01:11.908Z,19.09
2018-10-06T18:13:30.080Z,19.19
2018-10-06T18:14:26.850Z,19.14
2018-10-06T18:15:27.456Z,19.08
2018-10-06T18:19:13.526Z,19.08
2018-10-06T18:38:50.324Z,17.97
2018-10-06T18:41:36.781Z,17.85
2018-10-06T18:42:35.879Z,17.85
2018-10-06T18:43:40.334Z,17.74
2018-10-06T19:35:09.787Z,17.38
2018-10-06T19:37:48.653Z,17.33
2018-10-06T19:42:13.041Z,17.30
2018-10-06T19:42:30.067Z,17.19
2018-10-06T19:47:20.123Z,17.15
2018-10-06T19:47:44.453Z,17.19
2018-10-06T19:54:06.201Z,16.97
2018-10-06T20:02:30.200Z,16.83
2018-10-06T21:02:58.295Z,16.04
2018-10-06T21:13:01.468Z,15.67
2018-10-06T21:16:33.639Z,15.62
2018-10-06T21:20:51.395Z,15.62
2018-10-06T21:22:39.676Z,15.70
2018-10-06T21:42:29.562Z,15.47
2018-10-06T21:46:29.810Z,15.42
2018-10-06T21:47:58.387Z,15.46
